createdAt,value
2023-04-18T00:00:43.609Z,29.71
2023-04-18T00:01:43.571Z,29.48
2023-04-18T00:02:43.684Z,29.50
2023-04-18T00:03:43.828Z,29.33
2023-04-18T00:04:43.666Z,29.37
2023-04-18T00:05:43.653Z,29.81
2023-04-18T00:06:43.660Z,30.62
2023-04-18T00:07:43.694Z,29.97
2023-04-18T00:08:43.726Z,30.20
2023-04-18T00:09:43.832Z,29.73
2023-04-18T00:10:43.769Z,30.66
2023-04-18T00:11:43.795Z,30.16
2023-04-18T00:12:43.793Z,29.87
2023-04-18T00:13:43.828Z,29.74
2023-04-18T00:14:43.848Z,29.75
2023-04-18T00:15:43.874Z,29.57
2023-04-18T00:16:43.950Z,30.02
2023-04-18T00:17:44.001Z,30.42
2023-04-18T00:18:43.934Z,30.56
2023-04-18T00:19:43.981Z,29.57
2023-04-18T00:20:43.978Z,28.90
2023-04-18T00:21:43.980Z,29.31
2023-04-18T00:22:43.980Z,28.98
2023-04-18T00:23:44.020Z,29.18
2023-04-18T00:24:44.045Z,29.31
2023-04-18T00:25:44.054Z,29.59
2023-04-18T00:26:44.079Z,29.38
2023-04-18T00:27:44.097Z,29.41
2023-04-18T00:28:44.085Z,29.47
2023-04-18T00:29:44.097Z,28.73
2023-04-18T00:30:44.155Z,28.83
2023-04-18T00:31:44.087Z,28.99
2023-04-18T00:32:44.108Z,29.88
2023-04-18T00:33:44.084Z,29.61
2023-04-18T00:34:44.113Z,28.75
2023-04-18T00:35:44.101Z,28.65
2023-04-18T00:36:44.111Z,29.09
2023-04-18T00:37:44.106Z,27.91
2023-04-18T00:38:44.111Z,28.26
2023-04-18T00:39:44.114Z,28.83
2023-04-18T00:40:44.118Z,28.73
2023-04-18T00:41:44.134Z,28.39
2023-04-18T00:42:44.103Z,28.32
2023-04-18T00:43:44.350Z,28.05
2023-04-18T00:44:44.230Z,28.88
2023-04-18T00:45:44.226Z,28.81
2023-04-18T00:46:44.143Z,28.76
2023-04-18T00:47:44.190Z,27.95
2023-04-18T00:48:44.158Z,28.56
2023-04-18T00:49:44.162Z,28.18
2023-04-18T00:50:44.172Z,28.28
2023-04-18T00:51:44.167Z,28.39
2023-04-18T00:52:44.171Z,27.84
2023-04-18T00:53:44.211Z,27.23
2023-04-18T00:54:44.173Z,28.27
2023-04-18T00:55:44.189Z,28.15
2023-04-18T00:56:44.140Z,27.59
2023-04-18T00:57:44.177Z,27.97
2023-04-18T00:58:44.150Z,27.59
2023-04-18T00:59:44.140Z,27.25
2023-04-18T01:00:44.139Z,27.40
2023-04-18T01:01:44.161Z,27.08
2023-04-18T01:02:44.309Z,26.68
2023-04-18T01:03:44.292Z,26.89
2023-04-18T01:04:44.165Z,26.83
2023-04-18T01:05:44.204Z,27.03
2023-04-18T01:06:44.205Z,26.57
2023-04-18T01:07:44.222Z,26.89
2023-04-18T01:08:44.273Z,27.60
2023-04-18T01:09:44.259Z,27.09
2023-04-18T01:10:44.326Z,27.54
2023-04-18T01:11:44.316Z,26.84
2023-04-18T01:12:44.436Z,26.78
2023-04-18T01:13:44.354Z,26.41
2023-04-18T01:14:44.369Z,25.95
2023-04-18T01:15:44.425Z,25.70
2023-04-18T01:16:44.424Z,26.46
2023-04-18T01:17:44.489Z,26.15
2023-04-18T01:18:44.475Z,25.71
2023-04-18T01:19:44.505Z,25.63
2023-04-18T01:20:44.552Z,25.39
2023-04-18T01:21:44.580Z,26.04
2023-04-18T01:22:44.594Z,25.31
2023-04-18T01:23:44.598Z,25.69
2023-04-18T01:24:44.611Z,25.80
2023-04-18T01:25:44.640Z,25.62
2023-04-18T01:26:44.668Z,25.56
2023-04-18T01:27:44.675Z,25.64
2023-04-18T01:28:44.683Z,25.78
2023-04-18T01:29:44.750Z,25.80
2023-04-18T01:30:44.757Z,25.58
2023-04-18T01:31:44.870Z,24.87
2023-04-18T01:32:44.828Z,25.25
2023-04-18T01:33:44.793Z,24.84
2023-04-18T01:34:44.829Z,25.03
2023-04-18T01:35:44.870Z,24.72
2023-04-18T01:36:44.867Z,25.25
2023-04-18T01:37:44.904Z,25.86
2023-04-18T01:38:44.935Z,25.36
2023-04-18T01:39:44.944Z,25.41
2023-04-18T01:40:44.968Z,25.19
2023-04-18T01:41:44.979Z,25.28
2023-04-18T01:42:44.994Z,25.12
2023-04-18T01:43:45.090Z,25.09
2023-04-18T01:44:45.036Z,24.31
2023-04-18T01:45:45.081Z,24.67
2023-04-18T01:46:45.137Z,25.06
2023-04-18T01:47:45.147Z,25.06
2023-04-18T01:48:45.125Z,24.26
2023-04-18T01:49:45.166Z,24.39
2023-04-18T01:50:45.175Z,24.29
2023-04-18T01:51:45.197Z,23.98
2023-04-18T01:52:45.198Z,24.74
2023-04-18T01:53:45.236Z,23.75
2023-04-18T01:54:45.251Z,23.98
2023-04-18T01:55:45.275Z,24.11
2023-04-18T01:56:45.307Z,24.34
2023-04-18T01:57:45.322Z,24.04
2023-04-18T01:58:45.339Z,24.25
2023-04-18T01:59:45.379Z,24.19
2023-04-18T02:00:45.478Z,24.24
2023-04-18T02:01:45.387Z,24.25
2023-04-18T02:02:45.476Z,24.53
2023-04-18T02:03:45.731Z,24.85
2023-04-18T02:04:45.421Z,25.23
2023-04-18T02:05:45.382Z,24.74
2023-04-18T02:06:45.399Z,25.04
2023-04-18T02:07:45.396Z,25.63
2023-04-18T02:08:45.420Z,24.57
2023-04-18T02:09:45.409Z,24.69
2023-04-18T02:10:45.413Z,24.92
2023-04-18T02:11:45.395Z,24.53
2023-04-18T02:12:45.414Z,25.01
2023-04-18T02:13:45.401Z,24.88
2023-04-18T02:14:45.376Z,24.73
2023-04-18T02:15:45.418Z,24.01
2023-04-18T02:16:45.432Z,24.38
2023-04-18T02:17:45.458Z,23.84
2023-04-18T02:18:45.476Z,23.77
2023-04-18T02:19:45.382Z,23.35
2023-04-18T02:20:45.394Z,23.18
2023-04-18T02:21:45.376Z,21.92
2023-04-18T02:22:45.371Z,21.28
2023-04-18T02:23:45.382Z,21.26
2023-04-18T02:24:45.391Z,21.32
2023-04-18T02:25:45.377Z,21.12
2023-04-18T02:26:45.383Z,20.79
2023-04-18T02:27:45.394Z,20.27
2023-04-18T02:28:45.382Z,20.41
2023-04-18T02:29:45.423Z,20.93
2023-04-18T02:30:45.421Z,20.17
2023-04-18T02:31:45.540Z,19.40
2023-04-18T02:32:45.494Z,18.99
2023-04-18T02:33:45.512Z,18.27
2023-04-18T02:34:45.535Z,18.59
2023-04-18T02:35:45.562Z,19.08
2023-04-18T02:36:45.568Z,18.85
2023-04-18T02:37:45.616Z,18.50
2023-04-18T02:38:45.608Z,18.40
2023-04-18T02:39:45.660Z,17.79
2023-04-18T02:40:45.711Z,18.32
2023-04-18T02:41:45.713Z,18.16
2023-04-18T02:42:45.718Z,17.65
2023-04-18T02:43:45.747Z,17.21
2023-04-18T02:44:45.780Z,17.29
2023-04-18T02:45:45.812Z,17.45
2023-04-18T02:46:45.857Z,16.82
2023-04-18T02:47:54.476Z,16.75
2023-04-18T02:48:47.420Z,16.78
2023-04-18T02:49:45.850Z,16.27
2023-04-18T02:50:45.836Z,14.30
2023-04-18T02:51:45.840Z,13.32
2023-04-18T02:52:45.851Z,12.13
2023-04-18T02:53:45.946Z,11.57
2023-04-18T02:54:45.842Z,10.80
2023-04-18T02:55:45.868Z,10.39
2023-04-18T02:56:45.888Z,9.72
2023-04-18T02:57:45.843Z,9.71
2023-04-18T02:58:45.864Z,9.51
2023-04-18T02:59:45.857Z,9.34
2023-04-18T03:00:45.869Z,9.13
2023-04-18T03:01:45.907Z,9.19
2023-04-18T03:02:46.019Z,9.01
2023-04-18T03:03:45.867Z,8.73
2023-04-18T03:04:45.896Z,8.29
2023-04-18T03:05:45.896Z,7.91
2023-04-18T03:06:45.888Z,8.05
2023-04-18T03:07:45.881Z,7.00
2023-04-18T03:08:45.905Z,6.86
2023-04-18T03:09:45.905Z,6.73
2023-04-18T03:10:45.907Z,6.70
2023-04-18T03:11:45.920Z,6.56
2023-04-18T03:12:45.974Z,6.36
2023-04-18T03:13:45.925Z,6.44
2023-04-18T03:14:45.932Z,6.42
2023-04-18T03:15:46.008Z,6.29
2023-04-18T03:16:46.069Z,6.60
2023-04-18T03:17:46.149Z,6.98
2023-04-18T03:18:46.170Z,7.26
2023-04-18T03:19:46.256Z,7.42
2023-04-18T03:20:46.294Z,7.21
2023-04-18T03:21:46.333Z,7.41
2023-04-18T03:22:46.381Z,7.38
2023-04-18T03:23:46.518Z,7.48
2023-04-18T03:24:46.520Z,7.45
2023-04-18T03:25:46.596Z,7.78
2023-04-18T03:26:46.611Z,7.82
2023-04-18T03:27:46.761Z,7.74
2023-04-18T03:28:46.697Z,8.16
2023-04-18T03:29:46.824Z,8.28
2023-04-18T03:30:46.848Z,8.28
2023-04-18T03:31:46.913Z,8.64
2023-04-18T03:32:46.983Z,8.72
2023-04-18T03:33:46.944Z,8.46
2023-04-18T03:34:47.006Z,8.37
2023-04-18T03:35:47.096Z,8.91
2023-04-18T03:36:47.989Z,8.97
2023-04-18T03:37:47.141Z,9.27
2023-04-18T03:38:47.190Z,9.19
2023-04-18T03:39:47.260Z,9.07
2023-04-18T03:40:47.311Z,9.05
2023-04-18T03:41:47.354Z,9.16
2023-04-18T03:42:47.400Z,9.32
2023-04-18T03:43:47.441Z,9.31
2023-04-18T03:44:47.510Z,9.44
2023-04-18T03:45:47.626Z,9.82
2023-04-18T03:46:47.581Z,9.74
2023-04-18T03:47:47.695Z,9.62
2023-04-18T03:48:47.681Z,9.70
2023-04-18T03:49:47.711Z,10.11
2023-04-18T03:50:47.755Z,10.00
2023-04-18T03:51:47.994Z,10.23
2023-04-18T03:52:47.858Z,10.35
2023-04-18T03:53:47.888Z,9.94
2023-04-18T03:54:48.002Z,10.06
2023-04-18T03:55:47.990Z,9.59
2023-04-18T03:56:48.039Z,10.04
2023-04-18T03:57:48.093Z,9.67
2023-04-18T03:58:48.145Z,10.31
2023-04-18T03:59:48.177Z,10.13
2023-04-18T04:00:48.230Z,10.08
2023-04-18T04:01:48.338Z,10.42
2023-04-18T04:02:48.442Z,10.39
2023-04-18T04:03:48.433Z,10.30
2023-04-18T04:04:48.472Z,10.44
2023-04-18T04:05:48.455Z,10.37
2023-04-18T04:06:48.497Z,10.28
2023-04-18T04:07:48.562Z,10.51
2023-04-18T04:08:48.595Z,10.29
2023-04-18T04:09:48.636Z,10.37
2023-04-18T04:10:48.666Z,10.54
2023-04-18T04:11:48.758Z,10.20
2023-04-18T04:12:48.772Z,10.26
2023-04-18T04:13:48.780Z,10.28
2023-04-18T04:14:48.752Z,10.31
2023-04-18T04:15:48.755Z,10.41
2023-04-18T04:16:48.876Z,10.54
2023-04-18T04:17:48.859Z,10.48
2023-04-18T04:18:48.764Z,10.29
2023-04-18T04:19:48.757Z,10.35
2023-04-18T04:20:48.764Z,10.44
2023-04-18T04:21:48.755Z,10.77
2023-04-18T04:22:48.763Z,11.19
2023-04-18T04:23:48.755Z,11.25
2023-04-18T04:24:48.773Z,10.85
2023-04-18T04:25:48.760Z,11.41
2023-04-18T04:26:48.758Z,11.07
2023-04-18T04:27:49.085Z,10.88
2023-04-18T04:28:48.771Z,11.02
2023-04-18T04:29:48.767Z,10.87
2023-04-18T04:30:48.773Z,10.84
2023-04-18T04:31:48.831Z,10.83
2023-04-18T04:32:48.872Z,10.84
2023-04-18T04:33:48.781Z,10.89
2023-04-18T04:34:48.811Z,10.34
2023-04-18T04:35:48.783Z,9.78
2023-04-18T04:36:48.782Z,9.02
2023-04-18T04:37:48.804Z,8.79
2023-04-18T04:38:48.823Z,8.38
2023-04-18T04:39:48.818Z,8.88
2023-04-18T04:40:48.812Z,8.70
2023-04-18T04:41:48.829Z,8.67
2023-04-18T04:42:48.854Z,8.63
2023-04-18T04:43:48.862Z,8.76
2023-04-18T04:44:48.916Z,8.74
2023-04-18T04:45:48.949Z,8.67
2023-04-18T04:46:48.895Z,8.53
2023-04-18T04:47:49.000Z,8.25
2023-04-18T04:48:49.024Z,8.35
2023-04-18T04:49:49.077Z,8.32
2023-04-18T04:50:49.259Z,8.06
2023-04-18T04:51:49.217Z,7.95
2023-04-18T04:52:49.291Z,8.26
2023-04-18T04:53:49.355Z,7.55
2023-04-18T04:54:49.429Z,7.73
2023-04-18T04:55:49.482Z,7.50
2023-04-18T04:56:49.562Z,7.45
2023-04-18T04:57:49.671Z,7.74
2023-04-18T04:58:49.685Z,7.30
2023-04-18T04:59:49.789Z,7.28
2023-04-18T05:00:49.874Z,7.17
2023-04-18T05:01:49.922Z,7.07
2023-04-18T05:02:50.397Z,6.90
2023-04-18T05:03:50.306Z,6.92
2023-04-18T05:04:50.155Z,6.64
2023-04-18T05:05:50.254Z,6.30
2023-04-18T05:06:50.314Z,6.19
2023-04-18T05:07:50.400Z,6.20
2023-04-18T05:08:50.542Z,6.18
2023-04-18T05:09:50.661Z,5.91
2023-04-18T05:10:50.669Z,5.73
2023-04-18T05:11:50.709Z,5.80
2023-04-18T05:12:50.784Z,6.12
2023-04-18T05:13:50.856Z,6.39
2023-04-18T05:14:50.920Z,6.50
2023-04-18T05:15:50.993Z,6.46
2023-04-18T05:16:51.114Z,6.47
2023-04-18T05:17:51.149Z,6.71
2023-04-18T05:18:51.183Z,6.87
2023-04-18T05:19:51.275Z,6.79
2023-04-18T05:20:51.303Z,6.97
2023-04-18T05:21:51.326Z,6.99
2023-04-18T05:22:51.337Z,7.03
2023-04-18T05:23:51.347Z,7.23
2023-04-18T05:24:51.352Z,7.49
2023-04-18T05:25:51.352Z,8.00
2023-04-18T05:26:51.366Z,8.23
2023-04-18T05:27:51.424Z,8.26
2023-04-18T05:28:51.407Z,8.40
2023-04-18T05:29:51.411Z,8.13
2023-04-18T05:30:51.559Z,8.27
2023-04-18T05:31:51.438Z,8.57
2023-04-18T05:32:51.507Z,8.58
2023-04-18T05:33:51.461Z,8.66
2023-04-18T05:34:51.590Z,8.67
2023-04-18T05:35:51.607Z,8.51
2023-04-18T05:36:51.659Z,8.78
2023-04-18T05:37:51.702Z,9.24
2023-04-18T05:38:51.788Z,9.81
2023-04-18T05:39:51.816Z,9.67
2023-04-18T05:40:51.877Z,9.93
2023-04-18T05:41:51.948Z,10.31
2023-04-18T05:42:52.025Z,10.09
2023-04-18T05:44:02.300Z,10.31
2023-04-18T05:44:53.039Z,10.32
2023-04-18T05:45:52.326Z,10.16
2023-04-18T05:46:52.175Z,10.09
2023-04-18T05:47:52.886Z,9.94
2023-04-18T05:48:52.053Z,9.61
2023-04-18T05:49:52.053Z,9.50
2023-04-18T05:50:52.068Z,9.26
2023-04-18T05:51:52.096Z,8.86
2023-04-18T05:52:52.104Z,8.41
2023-04-18T05:53:52.122Z,8.26
2023-04-18T05:54:52.988Z,8.31
2023-04-18T05:55:52.105Z,8.11
2023-04-18T05:56:52.136Z,8.15
2023-04-18T05:57:52.199Z,8.22
2023-04-18T05:58:52.252Z,8.14
2023-04-18T05:59:52.327Z,8.19
2023-04-18T06:00:52.418Z,8.02
2023-04-18T06:01:52.470Z,8.15
2023-04-18T06:02:52.717Z,8.07
2023-04-18T06:03:52.836Z,8.23
2023-04-18T06:04:52.751Z,8.07
2023-04-18T06:05:52.759Z,8.11
2023-04-18T06:06:52.740Z,8.06
2023-04-18T06:07:52.873Z,8.08
2023-04-18T06:08:52.864Z,8.05
2023-04-18T06:09:52.929Z,7.96
2023-04-18T06:10:52.980Z,8.34
2023-04-18T06:11:53.074Z,8.11
2023-04-18T06:12:53.102Z,8.39
2023-04-18T06:13:53.159Z,8.48
2023-04-18T06:14:53.318Z,8.37
2023-04-18T06:15:53.313Z,8.41
2023-04-18T06:16:53.330Z,8.30
2023-04-18T06:17:53.424Z,8.53
2023-04-18T06:18:53.443Z,8.60
2023-04-18T06:19:53.604Z,8.59
2023-04-18T06:20:53.580Z,8.49
2023-04-18T06:21:53.650Z,8.55
2023-04-18T06:22:53.688Z,8.68
2023-04-18T06:23:53.755Z,8.69
2023-04-18T06:24:53.822Z,8.47
2023-04-18T06:25:53.877Z,8.60
2023-04-18T06:26:53.891Z,8.61
2023-04-18T06:27:53.932Z,8.53
2023-04-18T06:28:54.029Z,8.65
2023-04-18T06:29:53.931Z,8.76
2023-04-18T06:30:53.969Z,9.02
2023-04-18T06:31:54.051Z,8.62
2023-04-18T06:32:54.032Z,8.72
2023-04-18T06:33:53.978Z,8.93
2023-04-18T06:34:53.981Z,9.27
2023-04-18T06:35:54.042Z,9.95
2023-04-18T06:36:54.011Z,10.12
2023-04-18T06:37:54.022Z,9.97
2023-04-18T06:38:54.126Z,10.39
2023-04-18T06:39:54.048Z,10.61
2023-04-18T06:40:54.052Z,10.54
2023-04-18T06:41:54.158Z,10.66
2023-04-18T06:42:54.190Z,10.84
2023-04-18T06:44:03.353Z,10.58
2023-04-18T06:44:55.177Z,10.59
2023-04-18T06:45:54.251Z,10.38
2023-04-18T06:46:54.193Z,10.59
2023-04-18T06:47:54.348Z,10.54
2023-04-18T06:48:54.293Z,10.58
2023-04-18T06:49:54.226Z,10.54
2023-04-18T06:50:54.266Z,10.82
2023-04-18T06:51:54.313Z,11.00
2023-04-18T06:52:54.374Z,10.98
2023-04-18T06:53:54.697Z,11.38
2023-04-18T06:54:54.398Z,11.78
2023-04-18T06:55:54.406Z,11.71
2023-04-18T06:56:55.131Z,11.97
2023-04-18T06:57:54.515Z,12.29
2023-04-18T06:58:54.608Z,12.16
2023-04-18T06:59:54.585Z,11.98
2023-04-18T07:00:54.683Z,12.46
2023-04-18T07:01:54.757Z,12.52
2023-04-18T07:02:54.904Z,12.67
2023-04-18T07:03:54.867Z,12.55
2023-04-18T07:04:54.775Z,12.56
2023-04-18T07:05:54.801Z,12.59
2023-04-18T07:06:54.807Z,12.60
2023-04-18T07:07:54.855Z,12.85
2023-04-18T07:08:54.805Z,12.74
2023-04-18T07:09:54.873Z,12.41
2023-04-18T07:10:54.845Z,12.44
2023-04-18T07:11:54.874Z,12.25
2023-04-18T07:12:54.854Z,12.34
2023-04-18T07:13:54.940Z,12.08
2023-04-18T07:14:54.882Z,12.29
2023-04-18T07:15:54.882Z,12.02
2023-04-18T07:16:54.962Z,11.93
2023-04-18T07:17:54.927Z,11.81
2023-04-18T07:18:55.195Z,11.66
2023-04-18T07:19:55.138Z,10.77
2023-04-18T07:20:54.996Z,10.76
2023-04-18T07:21:54.892Z,10.75
2023-04-18T07:22:54.943Z,10.41
2023-04-18T07:23:54.930Z,9.99
2023-04-18T07:24:54.976Z,10.20
2023-04-18T07:25:54.932Z,10.28
2023-04-18T07:26:55.266Z,9.81
2023-04-18T07:27:54.937Z,9.92
2023-04-18T07:28:56.719Z,10.64
2023-04-18T07:29:55.039Z,10.45
2023-04-18T07:30:54.976Z,10.66
2023-04-18T07:31:55.029Z,10.67
2023-04-18T07:32:55.053Z,10.58
2023-04-18T07:33:55.134Z,10.20
2023-04-18T07:34:55.048Z,10.66
2023-04-18T07:35:54.999Z,10.67
2023-04-18T07:36:55.024Z,10.54
2023-04-18T07:37:54.990Z,10.21
2023-04-18T07:38:55.574Z,10.33
2023-04-18T07:39:55.016Z,9.28
2023-04-18T07:40:54.995Z,8.61
2023-04-18T07:41:55.032Z,8.20
2023-04-18T07:42:55.011Z,8.10
2023-04-18T07:43:55.069Z,7.18
2023-04-18T07:44:55.089Z,6.96
2023-04-18T07:45:55.090Z,6.02
2023-04-18T07:46:55.012Z,5.79
2023-04-18T07:47:55.126Z,5.25
2023-04-18T07:48:55.090Z,5.02
2023-04-18T07:49:55.125Z,4.89
2023-04-18T07:50:55.128Z,4.46
2023-04-18T07:51:55.327Z,4.15
2023-04-18T07:52:55.097Z,3.61
2023-04-18T07:53:55.184Z,3.55
2023-04-18T07:54:55.165Z,3.23
2023-04-18T07:55:55.131Z,3.12
2023-04-18T07:56:55.185Z,2.92
2023-04-18T07:57:55.168Z,2.65
2023-04-18T07:58:55.198Z,2.53
2023-04-18T07:59:55.235Z,2.16
2023-04-18T08:00:55.224Z,1.98
2023-04-18T08:01:55.300Z,1.78
2023-04-18T08:02:55.325Z,1.77
2023-04-18T08:03:55.289Z,1.84
2023-04-18T08:04:55.485Z,1.62
2023-04-18T08:05:55.280Z,1.55
2023-04-18T08:06:56.064Z,1.40
2023-04-18T08:07:55.236Z,1.33
2023-04-18T08:08:56.103Z,1.30
2023-04-18T08:09:55.279Z,1.22
2023-04-18T08:10:55.268Z,1.19
2023-04-18T08:11:55.284Z,1.15
2023-04-18T08:12:55.297Z,1.15
2023-04-18T08:13:55.263Z,1.05
2023-04-18T08:14:55.268Z,1.05
2023-04-18T08:15:55.304Z,1.04
2023-04-18T08:16:55.303Z,1.00
2023-04-18T08:17:55.426Z,0.99
2023-04-18T08:18:55.313Z,0.99
2023-04-18T08:20:00.645Z,0.89
2023-04-18T08:20:55.330Z,0.48
2023-04-18T08:21:55.310Z,0.34
2023-04-18T08:23:55.362Z,0.34
2023-04-18T08:25:04.182Z,0.34
2023-04-18T08:25:56.393Z,0.34
2023-04-18T08:26:55.392Z,0.34
2023-04-18T08:27:55.438Z,0.34
2023-04-18T08:28:55.530Z,0.34
2023-04-18T08:30:03.191Z,0.34
2023-04-18T08:30:55.461Z,0.34
2023-04-18T08:31:55.491Z,0.34
2023-04-18T08:32:55.550Z,0.34
2023-04-18T08:33:55.487Z,0.34
2023-04-18T08:34:55.480Z,0.34
2023-04-18T08:35:55.511Z,0.34
2023-04-18T08:36:55.511Z,0.34
2023-04-18T08:37:55.493Z,0.34
2023-04-18T08:38:55.522Z,0.34
2023-04-18T08:39:55.532Z,0.34
2023-04-18T08:40:55.528Z,0.34
2023-04-18T08:41:55.543Z,0.34
2023-04-18T08:42:55.521Z,0.34
2023-04-18T08:43:57.044Z,0.46
2023-04-18T08:44:55.567Z,0.54
2023-04-18T08:45:55.665Z,0.55
2023-04-18T08:46:55.656Z,0.64
2023-04-18T08:47:55.733Z,0.68
2023-04-18T08:48:56.653Z,0.68
2023-04-18T08:49:55.783Z,0.67
2023-04-18T08:50:56.550Z,0.71
2023-04-18T08:51:55.814Z,0.76
2023-04-18T08:52:55.831Z,0.85
2023-04-18T08:53:55.894Z,0.88
2023-04-18T08:54:55.906Z,0.89
2023-04-18T08:55:55.926Z,0.97
2023-04-18T08:56:55.961Z,1.04
2023-04-18T08:57:55.988Z,1.11
2023-04-18T08:58:55.992Z,1.16
2023-04-18T08:59:56.147Z,1.28
2023-04-18T09:00:56.097Z,1.26
2023-04-18T09:01:56.064Z,1.27
2023-04-18T09:02:56.336Z,1.27
2023-04-18T09:03:56.745Z,1.29
2023-04-18T09:04:56.037Z,1.26
2023-04-18T09:05:56.059Z,1.31
2023-04-18T09:06:56.041Z,1.45
2023-04-18T09:07:56.055Z,1.60
2023-04-18T09:08:56.035Z,1.74
2023-04-18T09:09:56.084Z,1.80
2023-04-18T09:10:56.066Z,1.69
2023-04-18T09:11:56.660Z,1.78
2023-04-18T09:12:56.032Z,1.93
2023-04-18T09:13:56.013Z,2.09
2023-04-18T09:14:56.024Z,2.21
2023-04-18T09:15:56.079Z,2.33
2023-04-18T09:16:56.164Z,2.48
2023-04-18T09:17:56.248Z,2.60
2023-04-18T09:18:56.003Z,2.76
2023-04-18T09:19:56.034Z,2.93
2023-04-18T09:20:56.038Z,3.10
2023-04-18T09:21:56.016Z,3.45
2023-04-18T09:22:56.033Z,3.83
2023-04-18T09:23:56.016Z,3.84
2023-04-18T09:24:56.012Z,4.03
2023-04-18T09:25:56.054Z,4.04
2023-04-18T09:26:56.052Z,4.10
2023-04-18T09:27:56.020Z,4.36
2023-04-18T09:28:56.026Z,4.61
2023-04-18T09:29:57.920Z,4.83
2023-04-18T09:30:56.118Z,4.88
2023-04-18T09:31:56.029Z,5.10
2023-04-18T09:32:56.082Z,5.19
2023-04-18T09:33:56.070Z,5.60
2023-04-18T09:34:56.099Z,5.90
2023-04-18T09:35:56.138Z,6.05
2023-04-18T09:36:56.237Z,6.01
2023-04-18T09:37:56.271Z,6.29
2023-04-18T09:38:57.157Z,6.44
2023-04-18T09:39:56.320Z,6.34
2023-04-18T09:40:56.425Z,6.62
2023-04-18T09:41:56.495Z,7.25
2023-04-18T09:42:56.551Z,7.79
2023-04-18T09:43:56.507Z,8.42
2023-04-18T09:44:56.921Z,7.30
2023-04-18T09:45:56.611Z,6.74
2023-04-18T09:46:56.568Z,6.95
2023-04-18T09:47:56.679Z,6.87
2023-04-18T09:48:56.671Z,7.01
2023-04-18T09:49:56.683Z,7.03
2023-04-18T09:50:56.679Z,7.09
2023-04-18T09:51:56.675Z,6.79
2023-04-18T09:52:56.809Z,6.77
2023-04-18T09:53:56.935Z,6.68
2023-04-18T09:54:56.748Z,6.42
2023-04-18T09:55:58.595Z,6.64
2023-04-18T09:56:56.852Z,6.90
2023-04-18T09:57:56.733Z,6.93
2023-04-18T09:58:56.789Z,7.34
2023-04-18T09:59:56.858Z,8.46
2023-04-18T10:00:56.950Z,8.23
2023-04-18T10:01:57.699Z,8.49
2023-04-18T10:02:57.679Z,8.35
2023-04-18T10:03:57.082Z,7.98
2023-04-18T10:04:57.111Z,8.01
2023-04-18T10:05:57.784Z,8.31
2023-04-18T10:06:57.179Z,9.74
2023-04-18T10:07:57.210Z,9.95
2023-04-18T10:08:57.218Z,10.35
2023-04-18T10:09:57.296Z,10.46
2023-04-18T10:10:57.361Z,10.50
2023-04-18T10:11:57.433Z,11.04
2023-04-18T10:12:57.501Z,11.30
2023-04-18T10:13:57.561Z,11.64
2023-04-18T10:14:57.611Z,11.88
2023-04-18T10:15:57.752Z,12.02
2023-04-18T10:16:57.767Z,12.87
2023-04-18T10:18:04.460Z,13.22
2023-04-18T10:18:58.828Z,13.23
2023-04-18T10:19:58.627Z,13.36
2023-04-18T10:20:57.847Z,13.47
2023-04-18T10:21:57.840Z,13.93
2023-04-18T10:22:57.848Z,14.76
2023-04-18T10:23:57.850Z,14.53
2023-04-18T10:24:57.854Z,15.03
2023-04-18T10:25:57.881Z,15.61
2023-04-18T10:26:57.854Z,15.98
2023-04-18T10:27:57.944Z,15.78
2023-04-18T10:28:57.940Z,15.80
2023-04-18T10:29:57.931Z,15.85
2023-04-18T10:30:58.029Z,14.95
2023-04-18T10:31:58.062Z,15.14
2023-04-18T10:32:57.958Z,15.09
2023-04-18T10:34:57.970Z,13.00
2023-04-18T10:35:57.945Z,12.74
2023-04-18T10:36:57.994Z,12.72
2023-04-18T10:37:57.940Z,12.13
2023-04-18T10:38:57.947Z,12.69
2023-04-18T10:39:57.993Z,12.14
2023-04-18T10:40:57.998Z,12.29
2023-04-18T10:41:57.981Z,12.23
2023-04-18T10:42:57.956Z,12.34
2023-04-18T10:43:57.960Z,12.34
2023-04-18T10:44:57.955Z,11.76
2023-04-18T10:45:57.972Z,11.69
2023-04-18T10:46:57.996Z,11.97
2023-04-18T10:47:58.014Z,13.11
2023-04-18T10:48:57.961Z,12.41
2023-04-18T10:49:57.971Z,11.17
2023-04-18T10:50:57.976Z,10.68
2023-04-18T10:51:57.982Z,10.90
2023-04-18T10:52:57.976Z,12.66
2023-04-18T10:53:57.980Z,12.18
2023-04-18T10:54:59.214Z,11.14
2023-04-18T10:55:58.032Z,10.93
2023-04-18T10:56:57.972Z,10.27
2023-04-18T10:57:57.980Z,10.01
2023-04-18T10:58:58.024Z,10.62
2023-04-18T10:59:57.988Z,11.81
2023-04-18T11:00:58.056Z,11.99
2023-04-18T11:01:58.097Z,12.48
2023-04-18T11:02:58.139Z,12.94
2023-04-18T11:03:58.029Z,12.72
2023-04-18T11:04:58.030Z,12.32
2023-04-18T11:05:58.021Z,12.02
2023-04-18T11:06:57.993Z,12.00
2023-04-18T11:07:58.033Z,12.00
2023-04-18T11:08:58.027Z,11.62
2023-04-18T11:09:58.020Z,11.90
2023-04-18T11:10:58.035Z,11.85
2023-04-18T11:11:58.031Z,12.09
2023-04-18T11:12:58.063Z,11.62
2023-04-18T11:13:58.021Z,11.20
2023-04-18T11:14:58.071Z,11.46
2023-04-18T11:15:58.010Z,11.06
2023-04-18T11:16:58.126Z,11.15
2023-04-18T11:17:58.109Z,11.10
2023-04-18T11:18:58.057Z,10.56
2023-04-18T11:19:58.222Z,10.47
2023-04-18T11:20:58.019Z,10.22
2023-04-18T11:21:58.145Z,10.63
2023-04-18T11:22:58.030Z,10.31
2023-04-18T11:23:58.070Z,9.82
2023-04-18T11:24:58.075Z,9.21
2023-04-18T11:25:58.096Z,8.53
2023-04-18T11:26:58.083Z,8.93
2023-04-18T11:27:58.072Z,9.23
2023-04-18T11:28:58.105Z,9.06
2023-04-18T11:29:58.139Z,9.02
2023-04-18T11:30:58.057Z,8.96
2023-04-18T11:31:58.891Z,8.83
2023-04-18T11:32:58.112Z,8.55
2023-04-18T11:33:58.067Z,8.26
2023-04-18T11:34:58.075Z,7.42
2023-04-18T11:35:58.083Z,7.74
2023-04-18T11:36:58.113Z,8.08
2023-04-18T11:37:58.070Z,8.70
2023-04-18T11:38:58.617Z,8.61
2023-04-18T11:39:58.135Z,8.63
2023-04-18T11:40:58.177Z,8.71
2023-04-18T11:41:58.259Z,8.97
2023-04-18T11:42:58.261Z,9.05
2023-04-18T11:43:58.328Z,9.15
2023-04-18T11:44:58.364Z,9.44
2023-04-18T11:45:58.445Z,10.00
2023-04-18T11:46:58.504Z,10.44
2023-04-18T11:47:58.648Z,10.45
2023-04-18T11:48:58.625Z,10.80
2023-04-18T11:49:58.668Z,11.29
2023-04-18T11:50:58.719Z,11.79
2023-04-18T11:51:58.779Z,12.37
2023-04-18T11:52:58.846Z,13.14
2023-04-18T11:53:58.875Z,13.41
2023-04-18T11:54:58.948Z,14.56
2023-04-18T11:55:59.066Z,14.49
2023-04-18T11:56:59.032Z,15.15
2023-04-18T11:57:59.062Z,16.55
2023-04-18T11:58:59.142Z,17.00
2023-04-18T11:59:59.155Z,17.03
2023-04-18T12:00:59.158Z,17.27
2023-04-18T12:01:59.143Z,17.76
2023-04-18T12:02:59.272Z,18.65
2023-04-18T12:03:59.340Z,20.65
2023-04-18T12:04:59.524Z,20.59
2023-04-18T12:05:59.256Z,22.32
2023-04-18T12:06:59.182Z,22.96
2023-04-18T12:07:59.211Z,23.74
2023-04-18T12:08:59.173Z,24.82
2023-04-18T12:09:59.148Z,24.75
2023-04-18T12:10:59.154Z,25.81
2023-04-18T12:11:59.183Z,27.09
2023-04-18T12:12:59.267Z,27.53
2023-04-18T12:13:59.262Z,28.36
2023-04-18T12:14:59.330Z,29.51
2023-04-18T12:15:59.462Z,30.13
2023-04-18T12:16:59.463Z,32.37
2023-04-18T12:17:59.583Z,32.25
2023-04-18T12:18:59.489Z,32.41
2023-04-18T12:19:59.532Z,33.42
2023-04-18T12:20:59.577Z,34.26
2023-04-18T12:21:59.650Z,34.42
2023-04-18T12:22:59.680Z,34.00
2023-04-18T12:23:59.751Z,36.10
2023-04-18T12:24:59.795Z,36.72
2023-04-18T12:25:59.793Z,38.40
2023-04-18T12:26:59.871Z,39.53
2023-04-18T12:27:59.864Z,40.39
2023-04-18T12:28:59.893Z,41.43
2023-04-18T12:29:59.950Z,42.37
2023-04-18T12:31:00.056Z,42.94
2023-04-18T12:32:00.060Z,43.54
2023-04-18T12:33:00.179Z,43.65
2023-04-18T12:34:00.119Z,45.06
2023-04-18T12:35:00.187Z,45.63
2023-04-18T12:36:00.112Z,45.72
2023-04-18T12:37:00.153Z,46.06
2023-04-18T12:38:00.207Z,46.89
2023-04-18T12:39:00.161Z,48.81
2023-04-18T12:40:00.207Z,51.30
2023-04-18T12:41:00.146Z,52.35
2023-04-18T12:42:00.151Z,53.05
2023-04-18T12:43:02.194Z,53.10
2023-04-18T12:44:00.161Z,53.55
2023-04-18T12:45:00.167Z,54.00
2023-04-18T12:46:00.158Z,55.42
2023-04-18T12:47:00.226Z,58.48
2023-04-18T12:48:00.136Z,58.65
2023-04-18T12:49:00.160Z,59.23
2023-04-18T12:50:00.160Z,60.11
2023-04-18T12:51:00.104Z,60.52
2023-04-18T12:52:00.147Z,60.70
2023-04-18T12:53:00.121Z,61.93
2023-04-18T12:54:00.111Z,63.05
2023-04-18T12:55:00.110Z,63.79
2023-04-18T12:56:00.106Z,63.10
2023-04-18T12:57:00.149Z,63.86
2023-04-18T12:58:00.108Z,64.72
2023-04-18T12:59:00.120Z,66.95
2023-04-18T13:00:00.140Z,66.35
2023-04-18T13:01:00.180Z,66.45
2023-04-18T13:02:00.261Z,66.82
2023-04-18T13:03:00.234Z,67.53
2023-04-18T13:04:11.847Z,68.11
2023-04-18T13:05:01.114Z,66.53
2023-04-18T13:06:00.099Z,67.12